Time;durP1;ratioP1;P1;durP2;ratioP2;P2;SDS_P1;SDS_P2;PMS_P1;PMS_P2;Temp;Humidity;BMP_temperature;BMP_pressure;BME280_temperature;BME280_humidity;BME280_pressure;Samples;Min_cycle;Max_cycle;Signal;HPM_P1;HPM_P2
2021/06/08 00:01:48;;;;;;;;;;;;;;;;;;5060149;28;19938;-69
2021/06/08 00:04:14;;;;;;;;;;;;;;;;;;5055175;28;20395;-72
2021/06/08 00:06:41;;;;;;;;;;;;;;;;;;5057144;28;19928;-70
2021/06/08 00:09:07;;;;;;;;;;;;;;;;;;5056867;28;20299;-68
2021/06/08 00:11:34;;;;;;;;;;;;;;;;;;5058751;28;19925;-70
2021/06/08 00:14:00;;;;;;;;;;;;;;;;;;5060922;28;19946;-72
2021/06/08 00:16:27;;;;;;;;;;;;;;;;;;5062774;28;20023;-70
2021/06/08 00:18:53;;;;;;;;;;;;;;;;;;5056994;28;19932;-70
2021/06/08 00:21:20;;;;;;;;;;;;;;;;;;5056220;28;19925;-68
2021/06/08 00:23:46;;;;;;;;;;;;;;;;;;5054788;28;19935;-70
2021/06/08 00:26:13;;;;;;;;;;;;;;;;;;5060822;28;20058;-70
2021/06/08 00:28:39;;;;;;;;;;;;;;;;;;5055451;28;19924;-70
2021/06/08 00:31:05;;;;;;;;;;;;;;;;;;5054918;28;19925;-70
2021/06/08 00:33:32;;;;;;;;;;;;;;;;;;5052802;28;20030;-70
2021/06/08 00:35:58;;;;;;;;;;;;;;;;;;5053677;28;19931;-71
2021/06/08 00:38:25;;;;;;;;;;;;;;;;;;5063252;28;20042;-71
2021/06/08 00:40:51;;;;;;;;;;;;;;;;;;5057293;28;20031;-68
2021/06/08 00:43:18;;;;;;;;;;;;;;;;;;5057183;28;20008;-72
2021/06/08 00:45:44;;;;;;;;;;;;;;;;;;5059840;28;19933;-72
2021/06/08 00:48:11;;;;;;;;;;;;;;;;;;5059262;28;19925;-71
2021/06/08 00:50:37;;;;;;;;;;;;;;;;;;5053237;28;19931;-69
2021/06/08 00:53:04;;;;;;;;;;;;;;;;;;5054250;28;19936;-70
2021/06/08 00:55:30;;;;;;;;;;;;;;;;;;5054208;28;19933;-70
2021/06/08 00:57:57;;;;;;;;;;;;;;;;;;5051441;28;20024;-68
2021/06/08 01:00:24;;;;;;;;;;;;;;;;;;5053477;28;20005;-70
2021/06/08 01:02:51;;;;;;;;;;;;;;;;;;5050962;28;20296;-70
2021/06/08 01:05:19;;;;;;;;;;;;;;;;;;5053704;28;20217;-69
2021/06/08 01:07:46;;;;;;;;;;;;;;;;;;5052820;28;19988;-71
2021/06/08 01:10:12;;;;;;;;;;;;;;;;;;5051849;28;20036;-70
2021/06/08 01:12:39;;;;;;;;;;;;;;;;;;5054814;28;19925;-70
2021/06/08 01:15:05;;;;;;;;;;;;;;;;;;5052416;28;19924;-70
2021/06/08 01:17:32;;;;;;;;;;;;;;;;;;5055895;28;19924;-69
2021/06/08 01:19:58;;;;;;;;;;;;;;;;;;5052400;28;20618;-70
2021/06/08 01:22:25;;;;;;;;;;;;;;;;;;5052675;28;19925;-71
2021/06/08 01:24:51;;;;;;;;;;;;;;;;;;5052877;28;19925;-71
2021/06/08 01:27:18;;;;;;;;;;;;;;;;;;5052501;28;20331;-71
2021/06/08 01:29:44;;;;;;;;;;;;;;;;;;5055443;28;19932;-71
2021/06/08 01:32:11;;;;;;;;;;;;;;;;;;5052478;28;20025;-70
2021/06/08 01:34:37;;;;;;;;;;;;;;;;;;5049118;28;20401;-71
2021/06/08 01:37:04;;;;;;;;;;;;;;;;;;5056084;28;20100;-72
2021/06/08 01:39:30;;;;;;;;;;;;;;;;;;5052555;28;19924;-70
2021/06/08 01:41:56;;;;;;;;;;;;;;;;;;5054644;28;19933;-70
2021/06/08 01:44:23;;;;;;;;;;;;;;;;;;5052292;28;19929;-71
2021/06/08 01:46:50;;;;;;;;;;;;;;;;;;5053838;28;19936;-71
2021/06/08 01:49:16;;;;;;;;;;;;;;;;;;5050454;28;19928;-71
2021/06/08 01:51:43;;;;;;;;;;;;;;;;;;5051097;28;19925;-70
2021/06/08 01:54:09;;;;;;;;;;;;;;;;;;5054728;28;20399;-70
2021/06/08 01:56:36;;;;;;;;;;;;;;;;;;5055370;28;19924;-70
2021/06/08 01:59:02;;;;;;;;;;;;;;;;;;5056318;28;19951;-69
2021/06/08 02:01:29;;;;;;;;;;;;;;;;;;5054464;28;19925;-70
2021/06/08 02:03:55;;;;;;;;;;;;;;;;;;5053486;28;20308;-71
2021/06/08 02:06:21;;;;;;;;;;;;;;;;;;5052263;28;19932;-71
2021/06/08 02:08:48;;;;;;;;;;;;;;;;;;5050222;28;20104;-69
2021/06/08 02:11:14;;;;;;;;;;;;;;;;;;5049473;28;20483;-71
2021/06/08 02:13:41;;;;;;;;;;;;;;;;;;5055636;28;20029;-71
2021/06/08 02:16:08;;;;;;;;;;;;;;;;;;5058157;28;19939;-71
2021/06/08 02:18:34;;;;;;;;;;;;;;;;;;5053662;28;19932;-71
2021/06/08 02:21:01;;;;;;;;;;;;;;;;;;5051598;28;20015;-69
2021/06/08 02:23:28;;;;;;;;;;;;;;;;;;5051505;28;19954;-70
2021/06/08 02:25:54;;;;;;;;;;;;;;;;;;5054654;28;19925;-71
2021/06/08 02:28:21;;;;;;;;;;;;;;;;;;5055283;28;19932;-71
2021/06/08 02:30:47;;;;;;;;;;;;;;;;;;5059507;28;20398;-71
2021/06/08 02:33:14;;;;;;;;;;;;;;;;;;5055247;28;19925;-72
2021/06/08 02:35:40;;;;;;;;;;;;;;;;;;5055834;28;19924;-70
2021/06/08 02:38:07;;;;;;;;;;;;;;;;;;5059123;28;19932;-71
2021/06/08 02:40:33;;;;;;;;;;;;;;;;;;5055447;28;19933;-71
2021/06/08 02:43:00;;;;;;;;;;;;;;;;;;5055058;28;20293;-71
2021/06/08 02:45:26;;;;;;;;;;;;;;;;;;5057864;28;19996;-72
2021/06/08 02:47:53;;;;;;;;;;;;;;;;;;5056092;28;20009;-71
2021/06/08 02:50:22;;;;;;;;;;;;;;;;;;5055871;28;19924;-73
2021/06/08 02:52:53;;;;;;;;;;;;;;;;;;5052624;28;19924;-72
2021/06/08 02:55:20;;;;;;;;;;;;;;;;;;5053309;28;19975;-72
2021/06/08 02:57:46;;;;;;;;;;;;;;;;;;5064578;28;19935;-70
2021/06/08 03:00:13;;;;;;;;;;;;;;;;;;5051453;28;19924;-71
2021/06/08 03:02:39;;;;;;;;;;;;;;;;;;5056778;28;20408;-71
2021/06/08 03:05:06;;;;;;;;;;;;;;;;;;5052194;28;19925;-71
2021/06/08 03:07:32;;;;;;;;;;;;;;;;;;5051633;28;19931;-71
2021/06/08 03:09:59;;;;;;;;;;;;;;;;;;5074587;22;20306;-64
2021/06/08 03:12:25;;;;;;;;;;;;;;;;;;5069239;28;19933;-65
2021/06/08 03:14:52;;;;;;;;;;;;;;;;;;5067069;28;19925;-64
2021/06/08 03:17:18;;;;;;;;;;;;;;;;;;5075188;28;20349;-64
2021/06/08 03:19:45;;;;;;;;;;;;;;;;;;5069122;28;19925;-64
2021/06/08 03:22:11;;;;;;;;;;;;;;;;;;5060372;28;19931;-64
2021/06/08 03:24:38;;;;;;;;;;;;;;;;;;5059792;28;19931;-65
2021/06/08 03:27:04;;;;;;;;;;;;;;;;;;5055202;28;19928;-64
2021/06/08 03:29:30;;;;;;;;;;;;;;;;;;5055710;28;19929;-64
2021/06/08 03:31:57;;;;;;;;;;;;;;;;;;5052691;28;19943;-64
2021/06/08 03:34:23;;;;;;;;;;;;;;;;;;5055304;28;19925;-64
2021/06/08 03:36:50;;;;;;;;;;;;;;;;;;5058159;28;19929;-64
2021/06/08 03:39:16;;;;;;;;;;;;;;;;;;5054389;28;20296;-65
2021/06/08 03:41:43;;;;;;;;;;;;;;;;;;5053686;28;19924;-64
2021/06/08 03:44:09;;;;;;;;;;;;;;;;;;5053683;28;19924;-65
2021/06/08 03:46:36;;;;;;;;;;;;;;;;;;5051066;28;20242;-65
2021/06/08 03:49:02;;;;;;;;;;;;;;;;;;5061301;28;20001;-64
2021/06/08 03:51:29;;;;;;;;;;;;;;;;;;5058762;28;19951;-64
2021/06/08 03:53:55;;;;;;;;;;;;;;;;;;5056068;28;19932;-64
2021/06/08 03:56:22;;;;;;;;;;;;;;;;;;5055123;28;20015;-64
2021/06/08 03:58:48;;;;;;;;;;;;;;;;;;5057721;28;19987;-64
2021/06/08 04:01:15;;;;;;;;;;;;;;;;;;5051018;28;19933;-65
2021/06/08 04:03:41;;;;;;;;;;;;;;;;;;5058572;28;19924;-65
2021/06/08 04:06:07;;;;;;;;;;;;;;;;;;5065745;28;19930;-64
2021/06/08 04:08:34;;;;;;;;;;;;;;;;;;5057165;28;19933;-64
2021/06/08 04:11:00;;;;;;;;;;;;;;;;;;5067757;28;19933;-64
2021/06/08 04:13:27;;;;;;;;;;;;;;;;;;5059659;28;20338;-64
2021/06/08 04:15:53;;;;;;;;;;;;;;;;;;5064736;28;19925;-65
2021/06/08 04:18:20;;;;;;;;;;;;;;;;;;5055965;28;19928;-64
2021/06/08 04:20:47;;;;;;;;;;;;;;;;;;5059417;28;19964;-64
2021/06/08 04:23:13;;;;;;;;;;;;;;;;;;5061904;28;20308;-64
2021/06/08 04:25:40;;;;;;;;;;;;;;;;;;5059273;28;20015;-63
2021/06/08 04:28:06;;;;;;;;;;;;;;;;;;5061186;28;20377;-63
2021/06/08 04:30:35;;;;;;;;;;;;;;;;;;5054913;28;19931;-64
2021/06/08 04:33:01;;;;;;;;;;;;;;;;;;5061647;28;19932;-64
2021/06/08 04:35:28;;;;;;;;;;;;;;;;;;5059900;28;19952;-64
2021/06/08 04:37:54;;;;;;;;;;;;;;;;;;5056756;28;19931;-64
2021/06/08 04:40:22;;;;;;;;;;;;;;;;;;5060338;28;19933;-64
2021/06/08 04:42:48;;;;;;;;;;;;;;;;;;5062012;28;20279;-64
2021/06/08 04:45:15;;;;;;;;;;;;;;;;;;5059267;28;19995;-64
2021/06/08 04:47:41;;;;;;;;;;;;;;;;;;5064907;28;20019;-64
2021/06/08 04:50:08;;;;;;;;;;;;;;;;;;5062216;28;20339;-64
2021/06/08 04:52:34;;;;;;;;;;;;;;;;;;5059197;28;19932;-64
2021/06/08 04:55:01;;;;;;;;;;;;;;;;;;5061248;28;20403;-64
2021/06/08 04:57:27;;;;;;;;;;;;;;;;;;5058776;28;19928;-64
2021/06/08 04:59:54;;;;;;;;;;;;;;;;;;5058265;28;19940;-64
2021/06/08 05:02:20;;;;;;;;;;;;;;;;;;5056044;28;20343;-65
2021/06/08 05:04:47;;;;;;;;;;;;;;;;;;5056932;28;19932;-64
2021/06/08 05:07:13;;;;;;;;;;;;;;;;;;5055606;28;19933;-65
2021/06/08 05:09:40;;;;;;;;;;;;;;;;;;5058288;28;19933;-64
2021/06/08 05:12:07;;;;;;;;;;;;;;;;;;5061780;28;19929;-64
2021/06/08 05:14:34;;;;;;;;;;;;;;;;;;5058904;28;19924;-64
2021/06/08 05:17:00;;;;;;;;;;;;;;;;;;5057619;28;19933;-64
2021/06/08 05:19:27;;;;;;;;;;;;;;;;;;5058660;28;20075;-64
2021/06/08 05:21:53;;;;;;;;;;;;;;;;;;5061888;28;20019;-64
2021/06/08 05:24:20;;;;;;;;;;;;;;;;;;5057120;28;19928;-64
2021/06/08 05:26:47;;;;;;;;;;;;;;;;;;5065940;28;19939;-64
2021/06/08 05:29:13;;;;;;;;;;;;;;;;;;5057658;28;19932;-64
2021/06/08 05:31:40;;;;;;;;;;;;;;;;;;5055165;28;20223;-65
2021/06/08 05:34:06;;;;;;;;;;;;;;;;;;5056976;28;19974;-65
2021/06/08 05:36:33;;;;;;;;;;;;;;;;;;5060786;28;19925;-65
2021/06/08 05:38:59;;;;;;;;;;;;;;;;;;5057128;28;19978;-65
2021/06/08 05:41:25;;;;;;;;;;;;;;;;;;5052476;28;19929;-65
2021/06/08 05:43:52;;;;;;;;;;;;;;;;;;5052641;28;20315;-65
2021/06/08 05:46:18;;;;;;;;;;;;;;;;;;5055932;28;19924;-65
2021/06/08 05:48:45;;;;;;;;;;;;;;;;;;5065642;28;19929;-65
2021/06/08 05:51:11;;;;;;;;;;;;;;;;;;5056620;28;19951;-65
2021/06/08 05:53:38;;;;;;;;;;;;;;;;;;5062250;28;19932;-65
2021/06/08 05:56:04;;;;;;;;;;;;;;;;;;5053581;28;19928;-65
2021/06/08 05:58:31;;;;;;;;;;;;;;;;;;5062298;28;20376;-65
2021/06/08 06:00:57;;;;;;;;;;;;;;;;;;5058863;28;19931;-65
2021/06/08 06:03:24;;;;;;;;;;;;;;;;;;5055675;28;20015;-65
2021/06/08 06:05:50;;;;;;;;;;;;;;;;;;5053883;28;20060;-65
2021/06/08 06:08:17;;;;;;;;;;;;;;;;;;5057738;28;19925;-65
2021/06/08 06:10:43;;;;;;;;;;;;;;;;;;5053526;28;20405;-65
2021/06/08 06:13:10;;;;;;;;;;;;;;;;;;5058344;28;21388;-65
2021/06/08 06:15:36;;;;;;;;;;;;;;;;;;5062830;28;20437;-65
2021/06/08 06:18:03;;;;;;;;;;;;;;;;;;5058390;28;19925;-65
2021/06/08 06:20:29;;;;;;;;;;;;;;;;;;5058570;28;19925;-65
2021/06/08 06:22:55;;;;;;;;;;;;;;;;;;5063422;28;19952;-66
2021/06/08 06:25:22;;;;;;;;;;;;;;;;;;5056905;28;19928;-65
2021/06/08 06:27:48;;;;;;;;;;;;;;;;;;5057109;28;19932;-65
2021/06/08 06:30:15;;;;;;;;;;;;;;;;;;5062499;28;20286;-65
2021/06/08 06:32:41;;;;;;;;;;;;;;;;;;5059417;28;19980;-65
2021/06/08 06:35:08;;;;;;;;;;;;;;;;;;5052123;28;19929;-66
2021/06/08 06:37:34;;;;;;;;;;;;;;;;;;5048334;28;19951;-66
2021/06/08 06:40:01;;;;;;;;;;;;;;;;;;5053084;28;19932;-65
2021/06/08 06:42:27;;;;;;;;;;;;;;;;;;5054790;28;20297;-65
2021/06/08 06:44:54;;;;;;;;;;;;;;;;;;5061752;28;19925;-66
2021/06/08 06:47:20;;;;;;;;;;;;;;;;;;5062272;28;19978;-67
2021/06/08 06:49:47;;;;;;;;;;;;;;;;;;5064084;28;19929;-67
2021/06/08 06:52:13;;;;;;;;;;;;;;;;;;5062658;28;20381;-66
2021/06/08 06:54:39;;;;;;;;;;;;;;;;;;5056489;28;20011;-66
2021/06/08 06:57:06;;;;;;;;;;;;;;;;;;5056850;28;19925;-66
2021/06/08 06:59:32;;;;;;;;;;;;;;;;;;5058962;28;20295;-67
2021/06/08 07:01:59;;;;;;;;;;;;;;;;;;5058471;28;19932;-66
2021/06/08 07:04:25;;;;;;;;;;;;;;;;;;5057909;28;20020;-66
2021/06/08 07:06:52;;;;;;;;;;;;;;;;;;5061449;28;19978;-67
2021/06/08 07:09:23;;;;;;;;;;;;;;;;;;5057698;28;20312;-66
2021/06/08 07:11:50;;;;;;;;;;;;;;;;;;5060069;28;20031;-66
2021/06/08 07:14:16;;;;;;;;;;;;;;;;;;5052728;28;19931;-66
2021/06/08 07:16:46;;;;;;;;;;;;;;;;;;5056132;28;19931;-66
2021/06/08 07:19:13;;;;;;;;;;;;;;;;;;5057328;28;19924;-66
2021/06/08 07:21:40;;;;;;;;;;;;;;;;;;5054309;28;19948;-67
2021/06/08 07:24:06;;;;;;;;;;;;;;;;;;5055769;28;19928;-66
2021/06/08 07:26:33;;;;;;;;;;;;;;;;;;5054024;28;20368;-67
2021/06/08 07:28:59;;;;;;;;;;;;;;;;;;5054265;28;19932;-67
2021/06/08 07:31:26;;;;;;;;;;;;;;;;;;5058558;28;19925;-67
2021/06/08 07:33:52;;;;;;;;;;;;;;;;;;5053546;28;20059;-66
2021/06/08 07:36:20;;;;;;;;;;;;;;;;;;5058526;28;20023;-66
2021/06/08 07:38:47;;;;;;;;;;;;;;;;;;5058953;28;20027;-65
2021/06/08 07:41:13;;;;;;;;;;;;;;;;;;5056615;28;19924;-65
2021/06/08 07:43:41;;;;;;;;;;;;;;;;;;5054413;28;19939;-66
2021/06/08 07:46:08;;;;;;;;;;;;;;;;;;5062313;28;20134;-65
2021/06/08 07:48:34;;;;;;;;;;;;;;;;;;5056441;28;19939;-65
2021/06/08 07:51:01;;;;;;;;;;;;;;;;;;5059176;28;19924;-66
2021/06/08 07:53:28;;;;;;;;;;;;;;;;;;5061240;28;20066;-65
2021/06/08 07:55:55;;;;;;;;;;;;;;;;;;5052630;28;20446;-65
2021/06/08 07:58:23;;;;;;;;;;;;;;;;;;5052971;28;19924;-65
2021/06/08 08:00:50;;;;;;;;;;;;;;;;;;5055671;28;19928;-65
2021/06/08 08:03:26;;;;;;;;;;;;;;;;;;5058542;28;19932;-65
2021/06/08 08:05:53;;;;;;;;;;;;;;;;;;5059674;28;19971;-66
2021/06/08 08:08:20;;;;;;;;;;;;;;;;;;5059992;28;19928;-65
2021/06/08 08:10:46;;;;;;;;;;;;;;;;;;5059675;28;19924;-65
2021/06/08 08:13:15;;;;;;;;;;;;;;;;;;5060522;28;19993;-65
2021/06/08 08:15:41;;;;;;;;;;;;;;;;;;5053478;28;19924;-66
2021/06/08 08:18:08;;;;;;;;;;;;;;;;;;5056594;28;19931;-66
2021/06/08 08:20:34;;;;;;;;;;;;;;;;;;5057620;28;19977;-65
2021/06/08 08:23:03;;;;;;;;;;;;;;;;;;5059485;28;19924;-65
2021/06/08 08:25:30;;;;;;;;;;;;;;;;;;5060632;28;20083;-66
2021/06/08 08:27:56;;;;;;;;;;;;;;;;;;5053833;28;19967;-65
2021/06/08 08:30:23;;;;;;;;;;;;;;;;;;5058834;28;20800;-65
2021/06/08 08:32:49;;;;;;;;;;;;;;;;;;5057186;28;19933;-65
2021/06/08 08:35:16;;;;;;;;;;;;;;;;;;5053053;28;19932;-65
2021/06/08 08:37:42;;;;;;;;;;;;;;;;;;5054804;28;19932;-65
2021/06/08 08:40:09;;;;;;;;;;;;;;;;;;5054131;28;19924;-66
2021/06/08 08:42:35;;;;;;;;;;;;;;;;;;5056487;28;19971;-65
2021/06/08 08:45:01;;;;;;;;;;;;;;;;;;5056592;28;20473;-66
2021/06/08 08:47:28;;;;;;;;;;;;;;;;;;5053545;28;19924;-65
2021/06/08 08:49:55;;;;;;;;;;;;;;;;;;5058401;28;19925;-65
2021/06/08 08:52:21;;;;;;;;;;;;;;;;;;5059475;28;20527;-65
2021/06/08 08:54:48;;;;;;;;;;;;;;;;;;5057759;28;19928;-66
2021/06/08 08:57:14;;;;;;;;;;;;;;;;;;5060117;28;20012;-66
2021/06/08 08:59:41;;;;;;;;;;;;;;;;;;5057964;28;19979;-66
2021/06/08 09:02:07;;;;;;;;;;;;;;;;;;5062271;28;20035;-66
2021/06/08 09:04:34;;;;;;;;;;;;;;;;;;5057629;28;19929;-65
2021/06/08 09:07:00;;;;;;;;;;;;;;;;;;5063786;28;20423;-66
2021/06/08 09:09:27;;;;;;;;;;;;;;;;;;5061323;28;19925;-67
2021/06/08 09:11:53;;;;;;;;;;;;;;;;;;5062939;28;19931;-68
2021/06/08 09:14:20;;;;;;;;;;;;;;;;;;5060469;28;20049;-67
2021/06/08 09:16:46;;;;;;;;;;;;;;;;;;5058737;28;19939;-66
2021/06/08 09:19:13;;;;;;;;;;;;;;;;;;5060920;28;20315;-66
2021/06/08 09:21:39;;;;;;;;;;;;;;;;;;5055681;28;19932;-66
2021/06/08 09:24:06;;;;;;;;;;;;;;;;;;5058222;28;20374;-67
2021/06/08 09:26:32;;;;;;;;;;;;;;;;;;5068418;28;20027;-67
2021/06/08 09:28:59;;;;;;;;;;;;;;;;;;5068387;28;19936;-66
2021/06/08 09:31:26;;;;;;;;;;;;;;;;;;5064232;28;19977;-67
2021/06/08 09:33:53;;;;;;;;;;;;;;;;;;5064846;28;19925;-65
2021/06/08 09:36:19;;;;;;;;;;;;;;;;;;5067213;28;20212;-65
2021/06/08 09:38:46;;;;;;;;;;;;;;;;;;5061086;28;20389;-65
2021/06/08 09:41:12;;;;;;;;;;;;;;;;;;5067380;28;19970;-65
2021/06/08 09:43:39;;;;;;;;;;;;;;;;;;5068066;28;19925;-65
2021/06/08 09:46:05;;;;;;;;;;;;;;;;;;5065196;28;19932;-65
2021/06/08 09:48:32;;;;;;;;;;;;;;;;;;5062179;28;20042;-65
2021/06/08 09:50:58;;;;;;;;;;;;;;;;;;5055407;28;20423;-65
2021/06/08 09:53:25;;;;;;;;;;;;;;;;;;5068696;28;19931;-65
2021/06/08 09:55:51;;;;;;;;;;;;;;;;;;5061414;28;19925;-66
2021/06/08 09:58:18;;;;;;;;;;;;;;;;;;5065313;28;19940;-65
2021/06/08 10:00:44;;;;;;;;;;;;;;;;;;5060641;28;19932;-66
2021/06/08 10:03:11;;;;;;;;;;;;;;;;;;5067475;28;20419;-66
2021/06/08 10:05:38;;;;;;;;;;;;;;;;;;5069504;28;19931;-65
2021/06/08 10:08:05;;;;;;;;;;;;;;;;;;5070324;28;19925;-66
2021/06/08 10:10:31;;;;;;;;;;;;;;;;;;5062789;28;19924;-65
2021/06/08 10:12:58;;;;;;;;;;;;;;;;;;5068375;28;19946;-65
2021/06/08 10:15:24;;;;;;;;;;;;;;;;;;5063323;28;19950;-65
2021/06/08 10:17:51;;;;;;;;;;;;;;;;;;5061309;28;20345;-65
2021/06/08 10:20:17;;;;;;;;;;;;;;;;;;5066214;28;19925;-65
2021/06/08 10:22:44;;;;;;;;;;;;;;;;;;5067895;28;20301;-67
2021/06/08 10:25:10;;;;;;;;;;;;;;;;;;5062335;28;20085;-65
2021/06/08 10:27:36;;;;;;;;;;;;;;;;;;5065279;28;19942;-66
2021/06/08 10:30:03;;;;;;;;;;;;;;;;;;5065449;28;19928;-66
2021/06/08 10:32:29;;;;;;;;;;;;;;;;;;5068524;28;19936;-66
2021/06/08 10:34:56;;;;;;;;;;;;;;;;;;5060699;28;19931;-65
2021/06/08 10:37:22;;;;;;;;;;;;;;;;;;5066815;28;19925;-66
2021/06/08 10:39:49;;;;;;;;;;;;;;;;;;5059381;28;20011;-66
2021/06/08 10:42:15;;;;;;;;;;;;;;;;;;5061966;28;20023;-66
2021/06/08 10:44:42;;;;;;;;;;;;;;;;;;5062773;28;19968;-66
2021/06/08 10:47:19;;;;;;;;;;;;;;;;;;5061784;28;20026;-65
2021/06/08 10:49:45;;;;;;;;;;;;;;;;;;5062546;28;19928;-65
2021/06/08 10:52:11;;;;;;;;;;;;;;;;;;5066059;28;20296;-66
2021/06/08 10:54:38;;;;;;;;;;;;;;;;;;5065838;28;20277;-65
2021/06/08 10:57:11;;;;;;;;;;;;;;;;;;5064557;28;20358;-65
2021/06/08 10:59:37;;;;;;;;;;;;;;;;;;5065935;28;20047;-66
2021/06/08 11:02:04;;;;;;;;;;;;;;;;;;5061348;28;20416;-66
2021/06/08 11:04:30;;;;;;;;;;;;;;;;;;5067707;28;19931;-66
2021/06/08 11:06:57;;;;;;;;;;;;;;;;;;5062474;28;19973;-67
2021/06/08 11:09:23;;;;;;;;;;;;;;;;;;5061036;28;19931;-66
2021/06/08 11:11:50;;;;;;;;;;;;;;;;;;5068565;28;19932;-66
2021/06/08 11:14:16;;;;;;;;;;;;;;;;;;5069498;28;19928;-66
2021/06/08 11:16:45;;;;;;;;;;;;;;;;;;5069504;28;19925;-66
2021/06/08 11:19:13;;;;;;;;;;;;;;;;;;5069282;28;20498;-66
2021/06/08 11:21:40;;;;;;;;;;;;;;;;;;5070260;28;20295;-65
2021/06/08 11:24:06;;;;;;;;;;;;;;;;;;5069080;28;20399;-65
2021/06/08 11:26:33;;;;;;;;;;;;;;;;;;5064704;28;19933;-65
2021/06/08 11:28:59;;;;;;;;;;;;;;;;;;5066855;28;20424;-66
2021/06/08 11:31:27;;;;;;;;;;;;;;;;;;5066083;28;19979;-66
2021/06/08 11:33:54;;;;;;;;;;;;;;;;;;5065116;28;20303;-65
2021/06/08 11:36:22;;;;;;;;;;;;;;;;;;5063259;28;20405;-65
2021/06/08 11:38:48;;;;;;;;;;;;;;;;;;5058709;28;20027;-65
2021/06/08 11:41:15;;;;;;;;;;;;;;;;;;5070821;28;20417;-65
2021/06/08 11:43:41;;;;;;;;;;;;;;;;;;5070125;28;19939;-65
2021/06/08 11:46:10;;;;;;;;;;;;;;;;;;5067457;28;20453;-65
2021/06/08 11:48:37;;;;;;;;;;;;;;;;;;5066790;28;19924;-66
2021/06/08 11:51:03;;;;;;;;;;;;;;;;;;5060133;28;19928;-65
2021/06/08 11:53:31;;;;;;;;;;;;;;;;;;5068177;28;19973;-66
2021/06/08 11:55:58;;;;;;;;;;;;;;;;;;5060041;28;19928;-67
2021/06/08 11:58:24;;;;;;;;;;;;;;;;;;5066621;28;20064;-66
2021/06/08 12:00:52;;;;;;;;;;;;;;;;;;5060944;28;20063;-66
2021/06/08 12:03:18;;;;;;;;;;;;;;;;;;5061572;28;20327;-65
2021/06/08 12:05:45;;;;;;;;;;;;;;;;;;5066995;28;20273;-66
2021/06/08 12:08:13;;;;;;;;;;;;;;;;;;5070800;28;20056;-67
2021/06/08 12:10:39;;;;;;;;;;;;;;;;;;5066058;28;20148;-66
2021/06/08 12:13:07;;;;;;;;;;;;;;;;;;5060784;28;20095;-66
2021/06/08 12:15:34;;;;;;;;;;;;;;;;;;5068282;28;20011;-66
2021/06/08 12:18:01;;;;;;;;;;;;;;;;;;5063793;28;20019;-66
2021/06/08 12:20:27;;;;;;;;;;;;;;;;;;5068016;28;19924;-65
2021/06/08 12:22:54;;;;;;;;;;;;;;;;;;5063139;28;19930;-66
2021/06/08 12:25:20;;;;;;;;;;;;;;;;;;5064880;28;19933;-65
2021/06/08 12:27:47;;;;;;;;;;;;;;;;;;5067366;28;19931;-65
2021/06/08 12:30:13;;;;;;;;;;;;;;;;;;5063221;28;19932;-66
2021/06/08 12:32:40;;;;;;;;;;;;;;;;;;5068676;28;19928;-65
2021/06/08 12:35:06;;;;;;;;;;;;;;;;;;5069233;28;19933;-65
2021/06/08 12:37:33;;;;;;;;;;;;;;;;;;5061266;28;19928;-64
2021/06/08 12:39:59;;;;;;;;;;;;;;;;;;5066244;28;20197;-65
2021/06/08 12:42:26;;;;;;;;;;;;;;;;;;5063869;28;19924;-65
2021/06/08 12:44:52;;;;;;;;;;;;;;;;;;5062519;28;20023;-65
2021/06/08 12:47:18;;;;;;;;;;;;;;;;;;5061708;28;19932;-65
2021/06/08 12:49:45;;;;;;;;;;;;;;;;;;5074358;28;19931;-65
2021/06/08 12:52:15;;;;;;;;;;;;;;;;;;5058540;28;19932;-65
2021/06/08 12:54:42;;;;;;;;;;;;;;;;;;5061500;28;19932;-65
2021/06/08 12:57:08;;;;;;;;;;;;;;;;;;5070811;28;20388;-65
2021/06/08 12:59:34;;;;;;;;;;;;;;;;;;5061058;28;19924;-66
2021/06/08 13:02:01;;;;;;;;;;;;;;;;;;5059520;28;19977;-65
2021/06/08 13:04:27;;;;;;;;;;;;;;;;;;5054317;28;19968;-65
2021/06/08 13:06:54;;;;;;;;;;;;;;;;;;5056135;28;19925;-66
2021/06/08 13:09:21;;;;;;;;;;;;;;;;;;5059525;28;19929;-64
2021/06/08 13:11:47;;;;;;;;;;;;;;;;;;5064391;28;20206;-64
2021/06/08 13:14:17;;;;;;;;;;;;;;;;;;5058733;28;20027;-65
2021/06/08 13:16:44;;;;;;;;;;;;;;;;;;5059738;28;19951;-65
2021/06/08 13:19:10;;;;;;;;;;;;;;;;;;5059340;28;20440;-66
2021/06/08 13:21:37;;;;;;;;;;;;;;;;;;5056939;28;19925;-65
2021/06/08 13:24:03;;;;;;;;;;;;;;;;;;5054054;28;19924;-65
2021/06/08 13:26:30;;;;;;;;;;;;;;;;;;5060425;28;19928;-64
2021/06/08 13:28:57;;;;;;;;;;;;;;;;;;5054661;28;20011;-65
2021/06/08 13:31:23;;;;;;;;;;;;;;;;;;5054298;28;20412;-66
2021/06/08 13:33:50;;;;;;;;;;;;;;;;;;5060486;28;20528;-64
2021/06/08 13:36:16;;;;;;;;;;;;;;;;;;5057200;28;19925;-64
2021/06/08 13:38:43;;;;;;;;;;;;;;;;;;5060046;28;19956;-63
2021/06/08 13:41:09;;;;;;;;;;;;;;;;;;5058645;28;19936;-64
2021/06/08 13:43:36;;;;;;;;;;;;;;;;;;5055401;28;20300;-63
2021/06/08 13:46:02;;;;;;;;;;;;;;;;;;5053698;28;19924;-64
2021/06/08 13:48:31;;;;;;;;;;;;;;;;;;5054167;28;19924;-64
2021/06/08 13:50:58;;;;;;;;;;;;;;;;;;5052457;28;20289;-64
2021/06/08 13:53:24;;;;;;;;;;;;;;;;;;5057973;28;20015;-64
2021/06/08 13:55:50;;;;;;;;;;;;;;;;;;5053534;28;19933;-63
2021/06/08 14:01:02;;;;;;;;;;;;;;;;;;5055118;28;19920;-63
2021/06/08 14:03:28;;;;;;;;;;;;;;;;;;5054911;28;19928;-63
2021/06/08 14:05:54;;;;;;;;;;;;;;;;;;5054938;28;19970;-63
2021/06/08 14:08:21;;;;;;;;;;;;;;;;;;5052052;28;19960;-63
2021/06/08 14:10:48;;;;;;;;;;;;;;;;;;5065809;28;20011;-63
2021/06/08 14:13:14;;;;;;;;;;;;;;;;;;5056861;28;19931;-65
2021/06/08 14:15:41;;;;;;;;;;;;;;;;;;5052683;28;20293;-64
2021/06/08 14:18:07;;;;;;;;;;;;;;;;;;5056860;28;19933;-63
2021/06/08 14:20:33;;;;;;;;;;;;;;;;;;5058712;28;20016;-64
2021/06/08 14:23:00;;;;;;;;;;;;;;;;;;5059633;28;19924;-63
2021/06/08 14:25:26;;;;;;;;;;;;;;;;;;5061173;28;19928;-64
2021/06/08 14:27:53;;;;;;;;;;;;;;;;;;5052446;28;19925;-64
2021/06/08 14:30:19;;;;;;;;;;;;;;;;;;5055190;28;19925;-64
2021/06/08 14:32:46;;;;;;;;;;;;;;;;;;5055519;28;20437;-64
2021/06/08 14:35:12;;;;;;;;;;;;;;;;;;5051776;28;20305;-64
2021/06/08 14:37:40;;;;;;;;;;;;;;;;;;5055800;28;20338;-64
2021/06/08 14:40:06;;;;;;;;;;;;;;;;;;5056942;28;19928;-64
2021/06/08 14:42:33;;;;;;;;;;;;;;;;;;5060264;28;19964;-64
2021/06/08 14:44:59;;;;;;;;;;;;;;;;;;5054658;28;19932;-64
2021/06/08 14:47:25;;;;;;;;;;;;;;;;;;5057387;28;19924;-65
2021/06/08 14:49:52;;;;;;;;;;;;;;;;;;5058014;28;19932;-64
2021/06/08 14:52:19;;;;;;;;;;;;;;;;;;5061234;28;19978;-64
2021/06/08 14:54:45;;;;;;;;;;;;;;;;;;5050761;28;20304;-64
2021/06/08 14:57:12;;;;;;;;;;;;;;;;;;5054931;28;19929;-64
2021/06/08 14:59:38;;;;;;;;;;;;;;;;;;5055792;28;20239;-64
2021/06/08 15:02:05;;;;;;;;;;;;;;;;;;5056886;28;19933;-64
2021/06/08 15:04:31;;;;;;;;;;;;;;;;;;5054573;28;20066;-64
2021/06/08 15:06:58;;;;;;;;;;;;;;;;;;5051325;28;19931;-64
2021/06/08 15:09:24;;;;;;;;;;;;;;;;;;5054927;28;19970;-64
2021/06/08 15:11:56;;;;;;;;;;;;;;;;;;5053645;28;20027;-64
2021/06/08 15:14:22;;;;;;;;;;;;;;;;;;5058491;28;20010;-65
2021/06/08 15:16:49;;;;;;;;;;;;;;;;;;5049740;28;19925;-64
2021/06/08 15:19:17;;;;;;;;;;;;;;;;;;5053881;28;19924;-65
2021/06/08 15:21:44;;;;;;;;;;;;;;;;;;5055842;28;19971;-64
2021/06/08 15:24:10;;;;;;;;;;;;;;;;;;5051157;28;19928;-65
2021/06/08 15:26:37;;;;;;;;;;;;;;;;;;5058493;28;20032;-65
2021/06/08 15:29:05;;;;;;;;;;;;;;;;;;5058489;28;21336;-64
2021/06/08 15:31:31;;;;;;;;;;;;;;;;;;5055228;28;20207;-66
2021/06/08 15:33:58;;;;;;;;;;;;;;;;;;5057813;28;20031;-64
2021/06/08 15:36:24;;;;;;;;;;;;;;;;;;5058747;28;19931;-65
2021/06/08 15:38:51;;;;;;;;;;;;;;;;;;5057038;28;19929;-65
2021/06/08 15:41:17;;;;;;;;;;;;;;;;;;5051329;28;20310;-66
2021/06/08 15:43:43;;;;;;;;;;;;;;;;;;5061851;28;20289;-65
2021/06/08 15:46:10;;;;;;;;;;;;;;;;;;5057025;28;20561;-65
2021/06/08 15:48:36;;;;;;;;;;;;;;;;;;5058281;28;20068;-65
2021/06/08 15:51:03;;;;;;;;;;;;;;;;;;5055302;28;20023;-65
2021/06/08 15:53:29;;;;;;;;;;;;;;;;;;5062577;28;19929;-65
2021/06/08 15:55:56;;;;;;;;;;;;;;;;;;5059348;28;19924;-64
2021/06/08 15:58:22;;;;;;;;;;;;;;;;;;5052589;28;19948;-64
2021/06/08 16:00:49;;;;;;;;;;;;;;;;;;5058434;28;19932;-66
2021/06/08 16:03:15;;;;;;;;;;;;;;;;;;5064886;28;20134;-64
2021/06/08 16:05:45;;;;;;;;;;;;;;;;;;5059423;28;20449;-65
2021/06/08 16:08:12;;;;;;;;;;;;;;;;;;5064792;28;19925;-64
2021/06/08 16:10:40;;;;;;;;;;;;;;;;;;5058557;28;20011;-65
2021/06/08 16:13:06;;;;;;;;;;;;;;;;;;5063221;28;19980;-66
2021/06/08 16:15:33;;;;;;;;;;;;;;;;;;5071423;28;20019;-65
2021/06/08 16:17:59;;;;;;;;;;;;;;;;;;5059734;28;20046;-65
2021/06/08 16:20:25;;;;;;;;;;;;;;;;;;5061454;28;20372;-66
2021/06/08 16:22:55;;;;;;;;;;;;;;;;;;5058814;28;20016;-66
2021/06/08 16:25:22;;;;;;;;;;;;;;;;;;5061245;28;20339;-66
2021/06/08 16:27:48;;;;;;;;;;;;;;;;;;5062339;28;19928;-66
2021/06/08 16:30:15;;;;;;;;;;;;;;;;;;5056767;28;20393;-66
2021/06/08 16:32:41;;;;;;;;;;;;;;;;;;5057831;28;20075;-65
2021/06/08 16:35:09;;;;;;;;;;;;;;;;;;5061436;28;19928;-65
2021/06/08 16:37:35;;;;;;;;;;;;;;;;;;5067223;28;19978;-64
2021/06/08 16:40:02;;;;;;;;;;;;;;;;;;5078214;28;19978;-64
2021/06/08 16:42:28;;;;;;;;;;;;;;;;;;5063470;28;19933;-63
2021/06/08 16:44:55;;;;;;;;;;;;;;;;;;5073597;28;19930;-63